createdAt,value
2022-11-04T00:01:31.003Z,10.90
2022-11-04T00:03:57.512Z,10.80
2022-11-04T00:06:24.257Z,10.90
2022-11-04T00:08:51.529Z,10.90
2022-11-04T00:11:37.288Z,10.90
2022-11-04T00:14:04.542Z,10.90
2022-11-04T00:16:49.930Z,10.90
2022-11-04T00:19:16.521Z,11.00
2022-11-04T00:22:01.650Z,11.00
2022-11-04T00:24:43.186Z,11.00
2022-11-04T00:27:29.422Z,11.00
2022-11-04T00:29:55.949Z,11.00
2022-11-04T00:32:41.397Z,11.00
2022-11-04T00:35:08.188Z,11.10
2022-11-04T00:37:38.783Z,11.00
2022-11-04T00:40:06.046Z,11.00
2022-11-04T00:42:32.742Z,11.00
2022-11-04T00:44:59.205Z,11.00
2022-11-04T00:47:25.712Z,11.00
2022-11-04T00:49:52.122Z,11.00
2022-11-04T00:52:18.536Z,10.90
2022-11-04T00:54:44.962Z,10.90
2022-11-04T00:57:11.691Z,10.90
2022-11-04T00:59:38.309Z,10.90
2022-11-04T01:02:04.822Z,10.90
2022-11-04T01:04:31.457Z,10.90
2022-11-04T01:06:58.031Z,10.90
2022-11-04T01:09:24.517Z,10.90
2022-11-04T01:11:50.936Z,10.90
2022-11-04T01:14:17.408Z,10.90
2022-11-04T01:16:43.846Z,10.90
2022-11-04T01:19:10.848Z,10.80
2022-11-04T01:21:37.271Z,10.90
2022-11-04T01:24:04.046Z,10.90
2022-11-04T01:26:30.501Z,10.90
2022-11-04T01:28:57.390Z,10.90
2022-11-04T01:31:25.427Z,10.90
2022-11-04T01:33:52.605Z,10.90
2022-11-04T01:36:19.675Z,10.90
2022-11-04T01:38:46.240Z,10.90
2022-11-04T01:41:18.817Z,10.90
2022-11-04T01:43:58.860Z,10.80
2022-11-04T01:46:28.297Z,10.80
2022-11-04T01:48:58.431Z,10.80
2022-11-04T01:51:25.418Z,10.80
2022-11-04T01:53:53.096Z,10.80
2022-11-04T01:56:20.622Z,10.80
2022-11-04T01:58:49.234Z,10.80
2022-11-04T02:01:15.765Z,10.80
2022-11-04T02:03:54.264Z,10.80
2022-11-04T02:06:21.842Z,10.80
2022-11-04T02:08:49.288Z,10.80
2022-11-04T02:11:35.734Z,10.70
2022-11-04T02:14:02.303Z,10.70
2022-11-04T02:16:36.106Z,10.60
2022-11-04T02:19:23.985Z,10.60
2022-11-04T02:22:05.829Z,10.50
2022-11-04T02:24:41.892Z,10.50
2022-11-04T02:27:18.522Z,10.40
2022-11-04T02:29:47.209Z,10.40
2022-11-04T02:32:26.137Z,10.40
2022-11-04T02:34:59.853Z,10.30
2022-11-04T02:37:45.277Z,10.30
2022-11-04T02:40:22.322Z,10.30
2022-11-04T02:42:56.417Z,10.30
2022-11-04T02:45:26.456Z,10.30
2022-11-04T02:48:01.647Z,10.30
2022-11-04T02:50:46.784Z,10.20
2022-11-04T02:53:25.822Z,10.20
2022-11-04T02:55:54.150Z,10.20
2022-11-04T02:58:24.097Z,10.20
2022-11-04T03:00:51.064Z,10.10
2022-11-04T03:03:21.886Z,10.20
2022-11-04T03:05:50.028Z,10.10
2022-11-04T03:08:20.367Z,10.10
2022-11-04T03:10:51.255Z,10.10
2022-11-04T03:13:24.022Z,10.20
2022-11-04T03:15:53.535Z,10.10
2022-11-04T03:18:40.238Z,10.10
2022-11-04T03:21:09.477Z,10.10
2022-11-04T03:23:36.251Z,10.00
2022-11-04T03:26:12.870Z,10.00
2022-11-04T03:28:58.317Z,10.00
2022-11-04T03:31:28.944Z,9.90
2022-11-04T03:33:55.926Z,9.80
2022-11-04T03:36:23.338Z,9.80
2022-11-04T03:38:50.663Z,9.80
2022-11-04T03:41:24.500Z,9.80
2022-11-04T03:43:50.953Z,9.80
2022-11-04T03:46:17.398Z,9.80
2022-11-04T03:48:45.348Z,9.80
2022-11-04T03:51:11.759Z,9.70
2022-11-04T03:53:38.257Z,9.70
2022-11-04T03:56:14.470Z,9.70
2022-11-04T03:58:59.757Z,9.70
2022-11-04T04:01:52.818Z,9.60
2022-11-04T04:04:37.076Z,9.60
2022-11-04T04:07:26.264Z,9.60
2022-11-04T04:10:26.841Z,9.60
2022-11-04T04:12:55.915Z,9.50
2022-11-04T04:15:26.866Z,9.50
2022-11-04T04:17:56.062Z,9.40
2022-11-04T04:20:24.297Z,9.40
2022-11-04T04:23:27.642Z,9.40
2022-11-04T04:26:13.385Z,9.30
2022-11-04T04:28:40.136Z,9.30
2022-11-04T04:31:07.990Z,9.30
2022-11-04T04:33:34.435Z,9.20
2022-11-04T04:36:00.874Z,9.20
2022-11-04T04:38:47.236Z,9.20
2022-11-04T04:41:37.946Z,9.20
2022-11-04T04:44:24.594Z,9.20
2022-11-04T04:46:51.968Z,9.10
2022-11-04T04:49:18.393Z,9.10
2022-11-04T04:51:45.813Z,9.10
2022-11-04T04:54:12.383Z,9.10
2022-11-04T04:56:38.795Z,9.10
2022-11-04T04:59:06.187Z,9.00
2022-11-04T05:01:33.072Z,9.00
2022-11-04T05:03:59.582Z,9.00
2022-11-04T05:06:26.676Z,9.00
2022-11-04T05:08:53.090Z,9.10
2022-11-04T05:11:24.318Z,9.00
2022-11-04T05:13:52.705Z,9.00
2022-11-04T05:16:19.197Z,9.00
2022-11-04T05:18:45.670Z,9.00
2022-11-04T05:21:13.773Z,9.00
2022-11-04T05:23:40.251Z,9.00
2022-11-04T05:26:07.109Z,9.00
2022-11-04T05:28:33.524Z,9.00
2022-11-04T05:31:04.249Z,9.00
2022-11-04T05:33:30.689Z,9.00
2022-11-04T05:36:05.615Z,8.90
2022-11-04T05:38:32.081Z,8.90
2022-11-04T05:40:58.554Z,8.90
2022-11-04T05:43:24.981Z,8.90
2022-11-04T05:45:51.458Z,8.80
2022-11-04T05:48:17.867Z,8.90
2022-11-04T05:50:45.143Z,8.80
2022-11-04T05:53:14.615Z,8.80
2022-11-04T05:55:42.675Z,8.70
2022-11-04T05:58:10.785Z,8.80
2022-11-04T06:00:37.519Z,8.80
2022-11-04T06:03:04.066Z,8.70
2022-11-04T06:05:30.568Z,8.70
2022-11-04T06:07:57.101Z,8.70
2022-11-04T06:10:23.954Z,8.80
2022-11-04T06:12:50.519Z,8.80
2022-11-04T06:15:16.967Z,8.80
2022-11-04T06:17:43.394Z,8.90
2022-11-04T06:20:10.083Z,9.00
2022-11-04T06:22:36.517Z,9.10
2022-11-04T06:25:03.066Z,9.10
2022-11-04T06:27:29.534Z,9.20
2022-11-04T06:29:56.095Z,9.20
2022-11-04T06:32:22.533Z,9.20
2022-11-04T06:34:48.966Z,9.20
2022-11-04T06:37:15.423Z,9.20
2022-11-04T06:39:41.878Z,9.10
2022-11-04T06:42:08.352Z,9.10
2022-11-04T06:44:35.170Z,9.10
2022-11-04T06:47:01.740Z,9.10
2022-11-04T06:49:28.339Z,9.00
2022-11-04T06:51:54.916Z,9.00
2022-11-04T06:54:21.331Z,9.00
2022-11-04T06:56:48.781Z,9.00
2022-11-04T06:59:16.489Z,9.00
2022-11-04T07:01:43.211Z,9.00
2022-11-04T07:04:10.132Z,9.10
2022-11-04T07:06:38.498Z,9.10
2022-11-04T07:09:07.630Z,9.10
2022-11-04T07:11:34.103Z,9.20
2022-11-04T07:14:00.578Z,9.30
2022-11-04T07:16:27.099Z,9.30
2022-11-04T07:18:54.287Z,9.30
2022-11-04T07:21:20.930Z,9.40
2022-11-04T07:23:47.822Z,9.50
2022-11-04T07:26:14.291Z,9.60
2022-11-04T07:28:40.696Z,9.60
2022-11-04T07:31:08.213Z,9.70
2022-11-04T07:33:34.685Z,9.70
2022-11-04T07:36:08.841Z,9.80
2022-11-04T07:38:35.325Z,9.80
2022-11-04T07:41:02.376Z,9.90
2022-11-04T07:43:29.518Z,10.00
2022-11-04T07:45:59.771Z,10.00
2022-11-04T07:48:26.281Z,10.10
2022-11-04T07:50:54.963Z,10.20
2022-11-04T07:53:21.479Z,10.30
2022-11-04T07:55:50.766Z,10.40
2022-11-04T07:58:18.778Z,10.50
2022-11-04T08:00:45.235Z,10.50
2022-11-04T08:03:12.271Z,10.60
2022-11-04T08:05:39.114Z,10.50
2022-11-04T08:08:05.585Z,10.50
2022-11-04T08:10:32.298Z,10.50
2022-11-04T08:12:58.875Z,10.50
2022-11-04T08:15:25.317Z,10.50
2022-11-04T08:17:51.723Z,10.50
2022-11-04T08:20:18.162Z,10.40
2022-11-04T08:22:44.567Z,10.40
2022-11-04T08:25:13.473Z,10.30
2022-11-04T08:27:39.989Z,10.40
2022-11-04T08:30:06.689Z,10.30
2022-11-04T08:32:33.122Z,10.40
2022-11-04T08:34:59.542Z,10.40
2022-11-04T08:37:26.007Z,10.40
2022-11-04T08:39:52.452Z,10.40
2022-11-04T08:42:18.867Z,10.50
2022-11-04T08:44:45.375Z,10.50
2022-11-04T08:47:11.832Z,10.50
2022-11-04T08:49:39.122Z,10.60
2022-11-04T08:52:06.058Z,10.70
2022-11-04T08:54:32.750Z,10.70
2022-11-04T08:57:01.200Z,10.70
2022-11-04T08:59:27.922Z,10.60
2022-11-04T09:01:54.459Z,10.60
2022-11-04T09:04:21.011Z,10.60
2022-11-04T09:06:47.449Z,10.60
2022-11-04T09:09:15.525Z,10.70
2022-11-04T09:11:42.713Z,10.70
2022-11-04T09:14:09.626Z,10.70
2022-11-04T09:16:37.485Z,10.80
2022-11-04T09:19:04.149Z,10.90
2022-11-04T09:21:30.955Z,11.00
2022-11-04T09:23:57.474Z,11.00
2022-11-04T09:26:24.225Z,11.10
2022-11-04T09:28:57.691Z,11.10
2022-11-04T09:31:24.874Z,11.00
2022-11-04T09:33:51.529Z,11.10
2022-11-04T09:36:18.000Z,11.10
2022-11-04T09:38:44.932Z,11.20
2022-11-04T09:41:22.106Z,11.30
2022-11-04T09:43:58.087Z,11.50
2022-11-04T09:46:24.642Z,11.70
2022-11-04T09:48:53.680Z,11.90
2022-11-04T09:51:47.916Z,12.40
2022-11-04T09:54:12.256Z,13.20
2022-11-04T09:56:42.109Z,14.10
2022-11-04T09:59:10.518Z,14.30
2022-11-04T10:01:37.127Z,14.10
2022-11-04T10:04:03.634Z,13.80
2022-11-04T10:06:30.700Z,13.70
2022-11-04T10:09:05.153Z,13.60
2022-11-04T10:11:37.163Z,13.60
2022-11-04T10:14:23.791Z,13.50
2022-11-04T10:16:56.057Z,13.40
2022-11-04T10:19:22.578Z,13.40
2022-11-04T10:22:01.491Z,13.50
2022-11-04T10:24:27.899Z,13.70
2022-11-04T10:27:00.380Z,13.70
2022-11-04T10:29:37.238Z,13.70
2022-11-04T10:32:06.770Z,13.70
2022-11-04T10:34:41.570Z,13.50
2022-11-04T10:37:11.961Z,13.60
2022-11-04T10:39:42.910Z,13.70
2022-11-04T10:42:11.475Z,13.90
2022-11-04T10:44:38.129Z,14.10
2022-11-04T10:47:14.871Z,14.20
2022-11-04T10:50:27.196Z,14.40
2022-11-04T10:52:46.673Z,14.60
2022-11-04T10:55:18.998Z,14.80
2022-11-04T10:57:45.472Z,15.50
2022-11-04T11:00:31.958Z,16.40
2022-11-04T11:02:59.586Z,16.70
2022-11-04T11:05:26.207Z,16.50
2022-11-04T11:07:54.403Z,16.40
2022-11-04T11:10:20.882Z,16.20
2022-11-04T11:12:54.904Z,15.70
2022-11-04T11:15:24.941Z,15.00
2022-11-04T11:17:56.871Z,14.60
2022-11-04T11:20:25.010Z,14.90
2022-11-04T11:22:51.997Z,15.60
2022-11-04T11:25:23.138Z,16.20
2022-11-04T11:27:54.509Z,17.00
2022-11-04T11:30:26.044Z,17.80
2022-11-04T11:32:55.656Z,18.30
2022-11-04T11:35:23.522Z,17.90
2022-11-04T11:37:50.211Z,17.70
2022-11-04T11:41:03.517Z,16.80
2022-11-04T11:43:31.049Z,16.40
2022-11-04T11:45:59.338Z,15.80
2022-11-04T11:48:42.842Z,15.60
2022-11-04T11:51:12.331Z,15.40
2022-11-04T11:53:45.460Z,15.50
2022-11-04T11:56:24.206Z,15.60
2022-11-04T12:01:50.643Z,15.70
2022-11-04T12:10:18.429Z,16.10
2022-11-04T12:12:55.718Z,16.30
2022-11-04T12:15:41.351Z,16.40
2022-11-04T12:18:18.625Z,16.40
2022-11-04T12:20:56.015Z,16.70
2022-11-04T12:23:26.426Z,17.00
2022-11-04T12:26:00.999Z,17.20
2022-11-04T12:28:39.639Z,17.10
2022-11-04T12:31:27.753Z,16.90
2022-11-04T12:34:06.405Z,16.70
2022-11-04T12:36:44.176Z,16.90
2022-11-04T12:39:20.006Z,16.90
2022-11-04T12:42:20.105Z,16.80
2022-11-04T12:44:53.773Z,16.60
2022-11-04T12:47:28.685Z,16.20
2022-11-04T12:50:00.857Z,15.90
2022-11-04T12:52:36.471Z,15.60
2022-11-04T12:55:15.085Z,15.50
2022-11-04T12:58:00.339Z,15.20
2022-11-04T13:00:28.785Z,15.10
2022-11-04T13:03:09.114Z,15.10
2022-11-04T13:05:39.727Z,15.10
2022-11-04T13:08:14.480Z,15.10
2022-11-04T13:10:44.017Z,15.10
2022-11-04T13:13:12.096Z,15.10
2022-11-04T13:16:02.010Z,15.00
2022-11-04T13:18:31.441Z,15.00
2022-11-04T13:21:03.866Z,15.00
2022-11-04T13:23:49.920Z,15.00
2022-11-04T13:26:17.245Z,15.00
2022-11-04T13:28:45.008Z,14.90
2022-11-04T13:31:19.539Z,14.90
2022-11-04T13:33:45.942Z,14.90
2022-11-04T13:36:15.442Z,14.80
2022-11-04T13:38:44.439Z,14.80
2022-11-04T13:41:13.465Z,14.70
2022-11-04T13:43:46.689Z,14.60
2022-11-04T13:46:13.121Z,14.50
2022-11-04T13:48:48.779Z,14.40
2022-11-04T13:51:15.186Z,14.40
2022-11-04T13:53:47.690Z,14.40
2022-11-04T13:56:35.100Z,14.40
2022-11-04T13:59:19.394Z,14.50
2022-11-04T14:01:46.302Z,14.40
2022-11-04T14:04:12.715Z,14.30
2022-11-04T14:06:58.318Z,14.30
2022-11-04T14:09:45.018Z,14.30
2022-11-04T14:12:14.391Z,14.10
2022-11-04T14:14:42.034Z,14.10
2022-11-04T14:17:27.044Z,13.90
2022-11-04T14:19:55.809Z,13.80
2022-11-04T14:22:25.750Z,13.70
2022-11-04T14:24:56.645Z,13.70
2022-11-04T14:27:40.393Z,13.60
2022-11-04T14:30:23.291Z,13.50
2022-11-04T14:32:54.718Z,13.50
2022-11-04T14:35:21.165Z,13.50
2022-11-04T14:37:55.634Z,13.40
2022-11-04T14:40:25.423Z,13.30
2022-11-04T14:42:56.348Z,13.30
2022-11-04T14:45:29.616Z,13.30
2022-11-04T14:48:00.595Z,13.20
2022-11-04T14:50:28.175Z,13.10
2022-11-04T14:52:54.562Z,13.10
2022-11-04T14:55:22.669Z,13.10
2022-11-04T14:57:50.268Z,13.00
2022-11-04T15:00:23.157Z,13.00
2022-11-04T15:02:59.692Z,13.00
2022-11-04T15:05:27.198Z,13.00
2022-11-04T15:07:53.678Z,12.90
2022-11-04T15:10:21.597Z,12.90
2022-11-04T15:12:51.548Z,12.90
2022-11-04T15:15:24.237Z,12.90
2022-11-04T15:17:50.858Z,12.80
2022-11-04T15:20:24.098Z,12.80
2022-11-04T15:22:51.468Z,12.70
2022-11-04T15:25:18.221Z,12.50
2022-11-04T15:27:45.147Z,12.40
2022-11-04T15:30:22.503Z,12.30
2022-11-04T15:32:56.443Z,12.20
2022-11-04T15:35:23.965Z,12.10
2022-11-04T15:37:52.069Z,12.00
2022-11-04T15:40:19.370Z,11.90
2022-11-04T15:42:46.268Z,11.90
2022-11-04T15:45:21.936Z,11.80
2022-11-04T15:47:48.659Z,11.80
2022-11-04T15:50:20.833Z,11.80
2022-11-04T15:52:52.870Z,11.70
2022-11-04T15:55:20.904Z,11.60
2022-11-04T15:57:47.382Z,11.60
2022-11-04T16:00:16.523Z,11.60
2022-11-04T16:02:48.319Z,11.50
2022-11-04T16:05:14.711Z,11.50
2022-11-04T16:07:43.288Z,11.50
2022-11-04T16:10:22.102Z,11.50
2022-11-04T16:12:56.494Z,11.50
2022-11-04T16:15:37.948Z,11.50
2022-11-04T16:18:05.109Z,11.50
2022-11-04T16:20:32.122Z,11.50
2022-11-04T16:22:59.834Z,11.50
2022-11-04T16:25:28.009Z,11.50
2022-11-04T16:27:54.439Z,11.60
2022-11-04T16:30:22.165Z,11.60
2022-11-04T16:32:50.538Z,11.60
2022-11-04T16:35:21.806Z,11.60
2022-11-04T16:37:48.741Z,11.50
2022-11-04T16:40:15.820Z,11.50
2022-11-04T16:42:42.592Z,11.50
2022-11-04T16:45:16.735Z,11.50
2022-11-04T16:47:43.143Z,11.50
2022-11-04T16:50:13.158Z,11.60
2022-11-04T16:52:44.014Z,11.60
2022-11-04T16:55:14.663Z,11.50
2022-11-04T16:57:41.549Z,11.60
2022-11-04T17:00:08.355Z,11.50
2022-11-04T17:02:37.751Z,11.60
2022-11-04T17:05:05.042Z,11.50
2022-11-04T17:07:51.478Z,11.50
2022-11-04T17:10:20.470Z,11.50
2022-11-04T17:12:46.988Z,11.50
2022-11-04T17:15:14.457Z,11.50
2022-11-04T17:17:41.039Z,11.50
2022-11-04T17:20:08.146Z,11.40
2022-11-04T17:22:40.167Z,11.40
2022-11-04T17:25:17.091Z,11.30
2022-11-04T17:27:47.208Z,11.30
2022-11-04T17:30:15.573Z,11.20
2022-11-04T17:32:43.225Z,11.20
2022-11-04T17:35:12.038Z,11.20
2022-11-04T17:37:39.843Z,11.10
2022-11-04T17:40:07.819Z,11.10
2022-11-04T17:42:55.325Z,11.10
2022-11-04T17:45:22.943Z,11.10
2022-11-04T17:47:49.947Z,11.10
2022-11-04T17:50:19.038Z,11.00
2022-11-04T17:52:49.453Z,11.00
2022-11-04T17:55:20.687Z,11.00
2022-11-04T17:57:51.711Z,10.90
2022-11-04T18:00:24.842Z,10.90
2022-11-04T18:02:55.955Z,10.90
2022-11-04T18:05:23.676Z,10.90
2022-11-04T18:07:56.577Z,10.90
2022-11-04T18:10:24.059Z,10.80
2022-11-04T18:12:51.205Z,10.80
2022-11-04T18:15:19.601Z,10.70
2022-11-04T18:17:47.831Z,10.70
2022-11-04T18:20:18.811Z,10.60
2022-11-04T18:22:47.179Z,10.60
2022-11-04T18:25:21.105Z,10.50
2022-11-04T18:27:49.601Z,10.40
2022-11-04T18:30:17.333Z,10.30
2022-11-04T18:32:44.892Z,10.30
2022-11-04T18:35:12.582Z,10.30
2022-11-04T18:37:48.009Z,10.30
2022-11-04T18:40:17.425Z,10.30
2022-11-04T18:42:44.448Z,10.30
2022-11-04T18:45:14.341Z,10.30
2022-11-04T18:47:46.031Z,10.20
2022-11-04T18:50:12.816Z,10.30
2022-11-04T18:52:42.586Z,10.20
2022-11-04T18:55:11.262Z,10.20
2022-11-04T18:57:38.936Z,10.20
2022-11-04T19:00:16.669Z,10.20
2022-11-04T19:02:53.909Z,10.20
2022-11-04T19:05:27.343Z,10.30
2022-11-04T19:07:54.855Z,10.30
2022-11-04T19:10:21.667Z,10.30
2022-11-04T19:13:07.539Z,10.30
2022-11-04T19:15:36.133Z,10.30
2022-11-04T19:18:04.667Z,10.30
2022-11-04T19:20:37.457Z,10.30
2022-11-04T19:23:05.923Z,10.30
2022-11-04T19:25:33.422Z,10.40
2022-11-04T19:28:31.299Z,10.40
2022-11-04T19:30:56.581Z,10.40
2022-11-04T19:33:23.878Z,10.40
2022-11-04T19:35:54.008Z,10.40
2022-11-04T19:38:23.728Z,10.40
2022-11-04T19:40:52.305Z,10.30
2022-11-04T19:43:19.898Z,10.30
2022-11-04T19:45:49.012Z,10.30
2022-11-04T19:48:18.518Z,10.30
2022-11-04T19:50:48.280Z,10.30
2022-11-04T19:53:17.990Z,10.30
2022-11-04T19:55:56.553Z,10.30
2022-11-04T19:58:32.207Z,10.30
2022-11-04T20:01:11.156Z,10.30
2022-11-04T20:03:39.416Z,10.30
2022-11-04T20:06:13.862Z,10.30
2022-11-04T20:08:44.310Z,10.20
2022-11-04T20:11:12.738Z,10.30
2022-11-04T20:13:50.825Z,10.30
2022-11-04T20:16:24.242Z,10.30
2022-11-04T20:21:43.892Z,10.30
2022-11-04T20:26:54.638Z,10.10
2022-11-04T20:29:35.730Z,10.10
2022-11-04T20:32:16.745Z,10.10
2022-11-04T20:34:44.791Z,10.10
2022-11-04T20:37:12.550Z,10.10
2022-11-04T20:39:46.838Z,10.10
2022-11-04T20:42:15.561Z,10.10
2022-11-04T20:45:10.461Z,10.10
2022-11-04T20:47:38.590Z,10.10
2022-11-04T20:50:05.296Z,10.20
2022-11-04T20:52:49.777Z,10.20
2022-11-04T20:55:16.815Z,10.10
2022-11-04T20:57:52.029Z,10.20
2022-11-04T21:00:32.479Z,10.20
2022-11-04T21:03:46.405Z,10.20
2022-11-04T21:09:02.939Z,10.20
2022-11-04T21:12:05.610Z,10.20
2022-11-04T21:14:36.171Z,10.20
2022-11-04T21:17:07.969Z,10.20
2022-11-04T21:22:17.734Z,10.20
2022-11-04T21:24:46.639Z,10.20
2022-11-04T21:30:14.055Z,10.20
2022-11-04T21:32:43.570Z,10.30
2022-11-04T21:35:13.944Z,10.30
2022-11-04T21:37:40.754Z,10.20
2022-11-04T21:40:08.146Z,10.20
2022-11-04T21:42:41.665Z,10.20
2022-11-04T21:46:04.207Z,10.20
2022-11-04T21:48:32.360Z,10.20
2022-11-04T21:51:26.463Z,10.10
2022-11-04T21:53:56.473Z,10.10
2022-11-04T21:56:34.653Z,10.10
2022-11-04T21:59:17.940Z,10.10
2022-11-04T22:02:29.357Z,10.10
2022-11-04T22:04:58.608Z,10.10
2022-11-04T22:07:57.308Z,10.00
2022-11-04T22:10:46.795Z,10.00
2022-11-04T22:13:16.696Z,10.10
2022-11-04T22:15:58.471Z,10.10
2022-11-04T22:18:32.227Z,10.10
2022-11-04T22:21:09.348Z,10.00
2022-11-04T22:23:36.152Z,10.00
2022-11-04T22:26:11.532Z,10.00
2022-11-04T22:31:20.700Z,10.00
2022-11-04T22:33:56.639Z,10.00
2022-11-04T22:39:09.465Z,9.90
2022-11-04T22:41:40.958Z,9.90
2022-11-04T22:44:13.630Z,9.90
2022-11-04T22:46:52.386Z,9.80
2022-11-04T22:49:26.328Z,9.80
2022-11-04T22:52:06.122Z,9.80
2022-11-04T22:54:35.065Z,9.70
2022-11-04T22:57:01.617Z,9.70
2022-11-04T22:59:45.108Z,9.70
2022-11-04T23:02:46.203Z,9.70
2022-11-04T23:05:16.258Z,9.70
2022-11-04T23:07:42.726Z,9.70
2022-11-04T23:13:28.999Z,9.50
2022-11-04T23:16:14.100Z,9.50
2022-11-04T23:18:49.210Z,9.50
2022-11-04T23:21:37.910Z,9.50
2022-11-04T23:27:04.311Z,9.40
2022-11-04T23:32:30.705Z,9.40
2022-11-04T23:38:20.234Z,9.50
2022-11-04T23:43:55.956Z,9.50
2022-11-04T23:46:57.305Z,9.50
2022-11-04T23:49:42.607Z,9.50
2022-11-04T23:52:32.386Z,9.50
2022-11-04T23:55:20.955Z,9.40
2022-11-04T23:58:09.131Z,9.50
